Time;durP1;ratioP1;P1;durP2;ratioP2;P2;SDS_P1;SDS_P2;PMS_P1;PMS_P2;Temp;Humidity;BMP_temperature;BMP_pressure;BME280_temperature;BME280_humidity;BME280_pressure;Samples;Min_cycle;Max_cycle;Signal;HPM_P1;HPM_P2
2023/06/01 00:00:02;;;;;;;6.70;5.30;;;11.50;1.00;;;;;;5074906;28;20173;-68
2023/06/01 00:02:27;;;;;;;10.47;5.13;;;11.50;1.00;;;;;;5073500;28;20189;-73
2023/06/01 00:04:53;;;;;;;11.30;5.87;;;11.50;1.00;;;;;;5075047;28;20960;-69
2023/06/01 00:07:20;;;;;;;11.67;5.00;;;11.40;1.00;;;;;;5075212;28;20237;-73
2023/06/01 00:09:46;;;;;;;11.20;5.33;;;11.40;1.00;;;;;;5074327;28;20164;-69
2023/06/01 00:12:12;;;;;;;9.57;4.83;;;11.40;1.00;;;;;;5072758;28;20470;-69
2023/06/01 00:14:37;;;;;;;10.60;5.07;;;11.40;1.00;;;;;;5073927;28;20271;-72
2023/06/01 00:17:05;;;;;;;7.97;4.83;;;11.50;1.00;;;;;;5073935;28;20174;-68
2023/06/01 00:19:31;;;;;;;12.10;4.47;;;11.50;1.00;;;;;;5074981;28;20167;-73
2023/06/01 00:21:57;;;;;;;8.97;4.90;;;11.50;1.00;;;;;;5073937;28;20417;-69
2023/06/01 00:24:23;;;;;;;9.23;4.60;;;11.50;1.00;;;;;;5074850;28;20689;-72
2023/06/01 00:26:49;;;;;;;16.50;6.13;;;11.60;1.00;;;;;;5071747;28;20439;-69
2023/06/01 00:29:15;;;;;;;10.93;6.00;;;11.60;1.00;;;;;;5073246;28;20407;-70
2023/06/01 00:31:41;;;;;;;10.33;7.73;;;11.60;1.00;;;;;;5073481;28;20169;-70
2023/06/01 00:34:07;;;;;;;11.20;5.30;;;11.70;1.00;;;;;;5074471;28;20415;-69
2023/06/01 00:36:33;;;;;;;11.87;5.33;;;11.70;1.00;;;;;;5074587;28;20170;-73
2023/06/01 00:39:02;;;;;;;14.90;5.10;;;11.70;1.00;;;;;;5074600;28;20405;-69
2023/06/01 00:41:29;;;;;;;10.10;4.60;;;11.60;1.00;;;;;;5072289;28;20493;-72
2023/06/01 00:43:54;;;;;;;8.50;5.30;;;11.70;1.00;;;;;;5072883;28;20927;-70
2023/06/01 00:46:20;;;;;;;12.90;5.30;;;11.70;1.00;;;;;;5074219;28;20427;-72
2023/06/01 00:48:46;;;;;;;13.43;5.47;;;11.50;1.00;;;;;;5073647;28;20640;-69
2023/06/01 00:51:14;;;;;;;10.33;5.30;;;11.50;1.00;;;;;;5072613;28;20419;-73
2023/06/01 00:53:41;;;;;;;8.13;4.60;;;11.50;1.00;;;;;;5074074;28;20398;-72
2023/06/01 00:56:07;;;;;;;9.43;4.83;;;11.50;1.00;;;;;;5072340;28;20910;-69
2023/06/01 00:58:33;;;;;;;12.23;5.50;;;11.60;1.00;;;;;;5074014;28;20416;-69
2023/06/01 01:01:01;;;;;;;12.07;5.47;;;11.60;1.00;;;;;;5073287;28;20935;-68
2023/06/01 01:03:31;;;;;;;14.53;6.03;;;11.70;1.00;;;;;;5073962;28;20190;-68
2023/06/01 01:06:22;;;;;;;9.00;5.10;;;11.70;1.00;;;;;;5074260;28;20419;-69
2023/06/01 01:09:22;;;;;;;12.43;5.67;;;11.80;1.00;;;;;;5073253;28;20371;-72
2023/06/01 01:12:03;;;;;;;13.23;7.10;;;11.70;1.00;;;;;;5045561;28;20404;-68
2023/06/01 01:15:11;;;;;;;14.70;5.70;;;11.70;1.00;;;;;;5053769;28;20938;-69
2023/06/01 01:17:42;;;;;;;9.13;5.53;;;11.70;1.00;;;;;;5048961;28;20874;-72
2023/06/01 01:20:29;;;;;;;16.57;5.47;;;11.70;1.00;;;;;;5070958;28;20432;-73
2023/06/01 01:23:19;;;;;;;10.57;4.77;;;11.80;1.00;;;;;;5072641;28;20745;-72
2023/06/01 01:25:56;;;;;;;12.40;5.50;;;11.80;1.00;;;;;;5073751;28;20448;-73
2023/06/01 01:28:51;;;;;;;7.57;4.33;;;11.80;1.00;;;;;;5072747;28;20789;-72
2023/06/01 01:31:21;;;;;;;9.57;4.70;;;11.70;1.00;;;;;;5072738;28;20400;-69
2023/06/01 01:33:49;;;;;;;13.80;5.70;;;11.70;1.00;;;;;;5073601;28;20422;-72
2023/06/01 01:36:16;;;;;;;15.33;5.60;;;11.70;1.00;;;;;;5072501;28;20409;-69
2023/06/01 01:38:42;;;;;;;13.70;5.23;;;11.80;1.00;;;;;;5072604;28;20830;-73
2023/06/01 01:41:07;;;;;;;9.40;5.17;;;11.70;1.00;;;;;;5070470;28;20519;-69
2023/06/01 01:43:34;;;;;;;8.13;5.60;;;11.80;1.00;;;;;;5073191;28;20252;-72
2023/06/01 01:46:25;;;;;;;8.17;5.30;;;11.80;1.00;;;;;;5072731;28;20277;-69
2023/06/01 01:49:12;;;;;;;10.53;5.50;;;11.80;1.00;;;;;;5073370;28;20371;-72
2023/06/01 01:51:57;;;;;;;12.33;5.30;;;11.80;1.00;;;;;;5071318;28;20903;-68
2023/06/01 01:54:25;;;;;;;13.30;6.00;;;11.80;1.00;;;;;;5073219;28;20578;-69
2023/06/01 01:56:54;;;;;;;13.77;5.50;;;11.90;1.00;;;;;;5073191;28;20408;-71
2023/06/01 01:59:21;;;;;;;15.30;6.57;;;11.80;1.00;;;;;;5072441;28;20427;-69
2023/06/01 02:01:47;;;;;;;18.13;5.80;;;11.80;1.00;;;;;;5071636;28;20732;-72
2023/06/01 02:04:13;;;;;;;15.30;6.80;;;11.80;1.00;;;;;;5071879;28;20439;-72
2023/06/01 02:06:38;;;;;;;10.93;6.03;;;11.80;1.00;;;;;;5070677;28;20452;-70
2023/06/01 02:09:07;;;;;;;12.87;5.47;;;11.90;1.00;;;;;;5072344;28;20509;-72
2023/06/01 02:11:36;;;;;;;13.37;6.77;;;11.90;1.00;;;;;;5072288;28;20170;-71
2023/06/01 02:14:02;;;;;;;11.47;6.10;;;11.80;1.00;;;;;;5071896;28;20752;-68
2023/06/01 02:16:28;;;;;;;12.23;6.73;;;11.80;1.00;;;;;;5073296;28;20379;-73
2023/06/01 02:18:57;;;;;;;12.37;5.17;;;11.70;1.00;;;;;;5076478;28;20394;-72
2023/06/01 02:21:23;;;;;;;9.00;4.57;;;11.70;1.00;;;;;;5074549;28;20202;-70
2023/06/01 02:23:49;;;;;;;11.67;5.43;;;11.80;1.00;;;;;;5075137;28;20517;-72
2023/06/01 02:26:16;;;;;;;28.13;7.17;;;11.80;1.00;;;;;;5076921;28;20514;-69
2023/06/01 02:28:42;;;;;;;11.57;5.47;;;11.80;1.00;;;;;;5077095;28;20611;-72
2023/06/01 02:31:09;;;;;;;15.20;5.70;;;11.80;1.00;;;;;;5076052;28;20396;-68
2023/06/01 02:33:35;;;;;;;14.23;5.30;;;11.80;1.00;;;;;;5075557;28;20494;-70
2023/06/01 02:36:01;;;;;;;9.33;6.47;;;11.70;1.00;;;;;;5075987;28;20517;-68
2023/06/01 02:38:27;;;;;;;18.10;5.77;;;11.70;1.00;;;;;;5076105;28;20246;-69
2023/06/01 02:40:53;;;;;;;11.87;5.93;;;11.70;1.00;;;;;;5075795;28;20458;-72
2023/06/01 02:43:19;;;;;;;12.00;5.40;;;11.80;1.00;;;;;;5076482;28;20448;-73
2023/06/01 02:45:45;;;;;;;8.57;5.63;;;11.80;1.00;;;;;;5076662;28;20450;-72
2023/06/01 02:48:10;;;;;;;11.50;5.70;;;11.80;1.00;;;;;;5075407;28;20388;-70
2023/06/01 02:50:36;;;;;;;18.60;6.00;;;11.70;1.00;;;;;;5074430;28;20205;-72
2023/06/01 02:53:02;;;;;;;14.13;5.70;;;11.70;1.00;;;;;;5075384;28;20641;-72
2023/06/01 02:55:28;;;;;;;12.57;4.90;;;11.70;1.00;;;;;;5075689;28;20170;-68
2023/06/01 02:57:53;;;;;;;10.03;4.80;;;11.60;1.00;;;;;;5076563;28;20216;-68
2023/06/01 03:00:19;;;;;;;10.33;4.77;;;11.60;1.00;;;;;;5075456;28;20167;-72
2023/06/01 03:02:45;;;;;;;13.50;6.27;;;11.70;1.00;;;;;;5075067;28;20243;-73
2023/06/01 03:05:14;;;;;;;22.07;7.27;;;11.70;1.00;;;;;;5075406;28;20197;-73
2023/06/01 03:07:40;;;;;;;7.70;5.20;;;11.70;1.00;;;;;;5074902;28;20895;-72
2023/06/01 03:10:07;;;;;;;8.13;4.70;;;11.70;1.00;;;;;;5075416;28;20407;-72
2023/06/01 03:12:32;;;;;;;12.93;5.00;;;11.70;1.00;;;;;;5075418;28;20390;-68
2023/06/01 03:14:58;;;;;;;12.57;4.60;;;11.70;1.00;;;;;;5076301;28;20877;-68
2023/06/01 03:17:24;;;;;;;17.17;5.07;;;11.80;1.00;;;;;;5074968;28;20407;-68
2023/06/01 03:19:50;;;;;;;19.30;5.70;;;11.70;1.00;;;;;;5074602;28;20162;-74
2023/06/01 03:22:16;;;;;;;17.57;5.00;;;11.70;1.00;;;;;;5075227;28;20906;-70
2023/06/01 03:24:41;;;;;;;9.43;5.47;;;11.70;1.00;;;;;;5075186;28;20178;-69
2023/06/01 03:27:08;;;;;;;14.03;5.40;;;11.60;1.00;;;;;;5075989;28;20474;-72
2023/06/01 03:29:33;;;;;;;12.37;7.40;;;11.60;1.00;;;;;;5072841;28;20178;-69
2023/06/01 03:31:59;;;;;;;12.30;6.70;;;11.70;1.00;;;;;;5074200;28;20393;-74
2023/06/01 03:34:27;;;;;;;9.30;4.40;;;11.80;1.00;;;;;;5075783;28;20686;-74
2023/06/01 03:36:53;;;;;;;12.20;5.50;;;11.70;1.00;;;;;;5075815;28;20363;-69
2023/06/01 03:39:19;;;;;;;9.07;5.67;;;11.70;1.00;;;;;;5075702;28;20368;-72
2023/06/01 03:41:45;;;;;;;14.43;5.00;;;11.70;1.00;;;;;;5074789;28;20371;-73
2023/06/01 03:44:11;;;;;;;12.10;5.03;;;11.80;1.00;;;;;;5073844;28;20501;-69
2023/06/01 03:46:38;;;;;;;14.57;6.20;;;11.80;1.00;;;;;;5074247;28;20426;-69
2023/06/01 03:49:04;;;;;;;11.00;4.93;;;11.80;1.00;;;;;;5074840;28;20393;-74
2023/06/01 03:51:31;;;;;;;19.27;6.20;;;11.80;1.00;;;;;;5073182;28;20439;-69
2023/06/01 03:53:57;;;;;;;8.10;4.80;;;11.80;1.00;;;;;;5075369;28;20399;-68
2023/06/01 03:56:25;;;;;;;15.50;5.77;;;11.90;1.00;;;;;;5074357;28;20416;-69
2023/06/01 03:58:51;;;;;;;9.60;5.07;;;11.80;1.00;;;;;;5065240;28;20429;-69
2023/06/01 04:01:19;;;;;;;8.87;5.07;;;11.90;1.00;;;;;;5054300;28;20514;-69
2023/06/01 04:03:45;;;;;;;11.57;6.03;;;11.90;1.00;;;;;;5055037;28;20191;-72
2023/06/01 04:06:12;;;;;;;9.17;5.40;;;11.90;1.00;;;;;;5055146;28;20514;-70
2023/06/01 04:08:47;;;;;;;15.00;5.30;;;11.90;1.00;;;;;;5054639;28;20391;-73
2023/06/01 04:11:13;;;;;;;9.70;5.00;;;11.90;1.00;;;;;;5054201;28;20972;-69
2023/06/01 04:13:39;;;;;;;10.40;4.63;;;11.90;1.00;;;;;;5063136;28;20446;-73
2023/06/01 04:16:05;;;;;;;6.30;5.03;;;12.00;1.00;;;;;;5074967;28;20726;-73
2023/06/01 04:18:30;;;;;;;10.30;5.87;;;11.90;1.00;;;;;;5073686;28;20264;-73
2023/06/01 04:20:59;;;;;;;10.10;5.20;;;12.00;1.00;;;;;;5072228;28;20440;-73
2023/06/01 04:23:25;;;;;;;10.27;5.80;;;12.00;1.00;;;;;;5074814;28;20251;-69
2023/06/01 04:25:51;;;;;;;13.93;5.10;;;12.00;1.00;;;;;;5074224;28;20427;-75
2023/06/01 04:28:17;;;;;;;11.30;4.97;;;12.00;1.00;;;;;;5072994;28;20425;-69
2023/06/01 04:30:47;;;;;;;9.13;4.83;;;12.10;1.00;;;;;;5072776;28;20413;-69
2023/06/01 04:33:13;;;;;;;11.63;6.00;;;12.00;1.00;;;;;;5074647;28;20189;-72
2023/06/01 04:35:39;;;;;;;14.63;6.07;;;12.10;1.00;;;;;;5074606;28;20404;-72
2023/06/01 04:38:05;;;;;;;11.77;4.73;;;12.10;1.00;;;;;;5074539;28;20393;-70
2023/06/01 04:40:31;;;;;;;10.13;5.30;;;12.20;1.00;;;;;;5071226;28;20606;-68
2023/06/01 04:42:56;;;;;;;14.97;5.90;;;12.10;1.00;;;;;;5074249;28;20555;-70
2023/06/01 04:45:25;;;;;;;13.43;5.83;;;12.20;1.00;;;;;;5073625;28;20194;-74
2023/06/01 04:47:51;;;;;;;14.70;6.40;;;12.20;1.00;;;;;;5074174;28;20220;-73
2023/06/01 04:50:17;;;;;;;16.10;6.57;;;12.10;1.00;;;;;;5073411;28;20410;-69
2023/06/01 04:52:44;;;;;;;8.07;5.57;;;12.10;1.00;;;;;;5074329;28;20440;-69
2023/06/01 04:55:12;;;;;;;13.63;5.10;;;12.10;1.00;;;;;;5073116;28;20455;-73
2023/06/01 04:57:44;;;;;;;11.13;5.20;;;12.10;1.00;;;;;;5074152;28;20408;-73
2023/06/01 05:00:12;;;;;;;11.17;4.60;;;12.10;1.00;;;;;;5073112;28;20386;-74
2023/06/01 05:02:39;;;;;;;15.40;5.47;;;12.20;1.00;;;;;;5073948;28;20432;-74
2023/06/01 05:05:07;;;;;;;12.30;5.07;;;12.20;1.00;;;;;;5073319;28;20445;-73
2023/06/01 05:07:33;;;;;;;10.27;5.10;;;12.30;1.00;;;;;;5074028;28;20411;-68
2023/06/01 05:10:04;;;;;;;16.27;5.70;;;12.30;1.00;;;;;;5072728;28;20428;-69
2023/06/01 05:12:30;;;;;;;9.37;5.50;;;12.40;1.00;;;;;;5073436;28;20398;-72
2023/06/01 05:14:56;;;;;;;14.23;5.60;;;12.40;1.00;;;;;;5073958;28;20417;-68
2023/06/01 05:17:21;;;;;;;16.43;3.87;;;12.40;1.00;;;;;;5074002;28;20383;-74
2023/06/01 05:19:47;;;;;;;14.27;4.30;;;12.40;1.00;;;;;;5073731;28;20178;-71
2023/06/01 05:22:13;;;;;;;4.50;3.63;;;12.50;1.00;;;;;;5072121;28;20231;-72
2023/06/01 05:24:39;;;;;;;6.30;3.37;;;12.50;1.00;;;;;;5072817;28;20395;-67
2023/06/01 05:27:05;;;;;;;11.20;3.90;;;12.70;1.00;;;;;;5073847;28;20166;-73
2023/06/01 05:29:31;;;;;;;8.60;3.90;;;12.60;99.90;;;;;;5073834;28;20371;-71
2023/06/01 05:31:59;;;;;;;4.00;3.60;;;12.60;99.90;;;;;;5052760;28;20876;-73
2023/06/01 05:34:25;;;;;;;7.10;3.77;;;12.40;99.90;;;;;;5053570;28;20226;-73
2023/06/01 05:36:51;;;;;;;10.93;4.17;;;12.40;99.90;;;;;;5053236;28;20436;-72
2023/06/01 05:39:16;;;;;;;6.43;3.20;;;12.40;99.90;;;;;;5053455;28;20384;-71
2023/06/01 05:41:42;;;;;;;13.63;3.50;;;12.40;99.90;;;;;;5052632;28;20175;-67
2023/06/01 05:44:10;;;;;;;8.73;3.83;;;12.50;99.90;;;;;;5052417;28;20583;-67
2023/06/01 05:46:36;;;;;;;12.37;3.37;;;12.60;99.90;;;;;;5053250;28;20206;-68
2023/06/01 05:49:01;;;;;;;4.70;3.00;;;12.60;99.90;;;;;;5052277;28;20423;-68
2023/06/01 05:51:27;;;;;;;7.10;3.47;;;12.40;99.90;;;;;;5064653;28;20210;-70
2023/06/01 05:53:53;;;;;;;7.33;3.83;;;12.40;99.90;;;;;;5072818;28;20597;-70
2023/06/01 05:56:19;;;;;;;7.93;3.30;;;12.40;99.90;;;;;;5072223;28;20181;-70
2023/06/01 05:58:46;;;;;;;7.13;3.27;;;12.50;99.90;;;;;;5073249;28;20226;-68
2023/06/01 06:01:11;;;;;;;10.80;3.57;;;12.60;99.90;;;;;;5071858;28;20412;-68
2023/06/01 06:03:38;;;;;;;7.90;3.40;;;12.60;99.90;;;;;;5073062;28;20406;-68
2023/06/01 06:06:04;;;;;;;7.90;3.50;;;12.70;99.90;;;;;;5069255;28;20194;-73
2023/06/01 06:08:30;;;;;;;6.43;3.47;;;12.70;99.90;;;;;;5074098;28;20383;-66
2023/06/01 06:10:56;;;;;;;9.27;3.47;;;12.60;99.90;;;;;;5069558;28;20526;-72
2023/06/01 06:13:22;;;;;;;10.53;3.13;;;12.70;99.90;;;;;;5073243;28;20186;-70
2023/06/01 06:15:47;;;;;;;6.83;3.63;;;12.70;99.90;;;;;;5073134;28;20759;-71
2023/06/01 06:18:13;;;;;;;9.50;3.73;;;12.80;99.90;;;;;;5072395;28;20174;-71
2023/06/01 06:20:39;;;;;;;15.17;4.60;;;12.90;99.90;;;;;;5072110;28;20207;-69
2023/06/01 06:23:05;;;;;;;10.60;3.13;;;13.00;99.90;;;;;;5073092;28;20428;-67
2023/06/01 06:25:30;;;;;;;10.33;3.40;;;13.00;99.90;;;;;;5069412;28;20205;-67
2023/06/01 06:27:56;;;;;;;9.70;4.13;;;13.10;99.90;;;;;;5057072;28;20183;-66
2023/06/01 06:30:24;;;;;;;8.83;3.60;;;13.10;99.90;;;;;;5061108;28;20648;-70
2023/06/01 06:32:50;;;;;;;10.00;3.97;;;13.00;99.90;;;;;;5072866;28;20729;-73
2023/06/01 06:35:16;;;;;;;7.60;3.63;;;13.00;99.90;;;;;;5073051;28;20437;-70
2023/06/01 06:37:43;;;;;;;7.10;3.73;;;12.90;99.90;;;;;;5072311;28;20252;-72
2023/06/01 06:40:09;;;;;;;9.10;4.00;;;12.90;99.90;;;;;;5072101;28;20238;-68
2023/06/01 06:42:35;;;;;;;14.83;4.30;;;12.90;99.90;;;;;;5071290;28;20512;-68
2023/06/01 06:45:01;;;;;;;7.33;3.30;;;12.90;99.90;;;;;;5072679;28;20547;-72
2023/06/01 06:47:27;;;;;;;12.07;4.17;;;12.90;99.90;;;;;;5071902;28;20486;-67
2023/06/01 06:49:53;;;;;;;9.00;3.83;;;12.90;99.90;;;;;;5072567;28;20163;-74
2023/06/01 06:52:19;;;;;;;7.67;4.07;;;12.90;99.90;;;;;;5071984;28;20390;-70
2023/06/01 06:54:45;;;;;;;11.33;4.10;;;13.00;99.90;;;;;;5072475;28;20166;-68
2023/06/01 06:57:11;;;;;;;9.00;3.93;;;13.20;99.90;;;;;;5070414;28;20215;-68
2023/06/01 06:59:36;;;;;;;9.03;3.03;;;13.20;99.90;;;;;;5057190;28;20526;-71
2023/06/01 07:02:03;;;;;;;11.97;3.43;;;13.30;99.90;;;;;;5051819;28;20175;-71
2023/06/01 07:04:29;;;;;;;15.07;5.63;;;13.30;99.90;;;;;;5053456;28;20640;-67
2023/06/01 07:06:55;;;;;;;7.47;2.93;;;13.30;99.90;;;;;;5056117;28;20452;-72
2023/06/01 07:09:21;;;;;;;4.07;3.30;;;13.30;99.90;;;;;;5056350;28;20898;-67
2023/06/01 07:11:47;;;;;;;8.73;4.23;;;13.20;99.90;;;;;;5075018;28;20450;-72
2023/06/01 07:14:14;;;;;;;15.63;4.50;;;13.30;99.90;;;;;;5074883;28;20795;-66
2023/06/01 07:16:40;;;;;;;6.43;3.60;;;13.50;99.90;;;;;;5076098;28;20375;-72
2023/06/01 07:19:06;;;;;;;13.53;4.53;;;13.60;99.90;;;;;;5075952;28;20877;-70
2023/06/01 07:21:32;;;;;;;7.43;3.70;;;13.70;99.90;;;;;;5073825;28;20395;-67
2023/06/01 07:24:00;;;;;;;12.20;3.90;;;13.90;99.90;;;;;;5075118;28;20399;-68
2023/06/01 07:26:28;;;;;;;13.87;4.50;;;13.90;99.90;;;;;;5075857;28;20569;-71
2023/06/01 07:28:56;;;;;;;7.47;4.23;;;14.00;99.90;;;;;;5074800;28;20413;-67
2023/06/01 07:31:22;;;;;;;10.43;3.80;;;14.00;99.90;;;;;;5074191;28;20440;-71
2023/06/01 07:33:48;;;;;;;6.57;3.60;;;14.10;99.90;;;;;;5074958;28;20431;-68
2023/06/01 07:36:14;;;;;;;7.13;4.00;;;14.20;99.90;;;;;;5075765;28;20404;-71
2023/06/01 07:38:40;;;;;;;8.87;4.10;;;14.30;99.90;;;;;;5074954;28;20185;-67
2023/06/01 07:41:06;;;;;;;13.10;4.20;;;14.40;99.90;;;;;;5074939;28;20745;-71
2023/06/01 07:43:35;;;;;;;8.07;4.17;;;14.50;99.90;;;;;;5074142;28;20288;-67
2023/06/01 07:46:01;;;;;;;10.30;4.23;;;14.60;99.90;;;;;;5075590;28;20451;-71
2023/06/01 07:48:26;;;;;;;8.60;3.57;;;14.70;99.90;;;;;;5074838;28;20409;-71
2023/06/01 07:50:52;;;;;;;10.43;3.40;;;14.80;99.90;;;;;;5074793;28;20492;-67
2023/06/01 07:53:20;;;;;;;9.30;4.27;;;14.80;99.90;;;;;;5074505;28;20280;-71
2023/06/01 07:55:48;;;;;;;10.23;3.73;;;14.80;99.90;;;;;;5074186;28;20178;-67
2023/06/01 07:58:14;;;;;;;7.87;4.00;;;14.80;99.90;;;;;;5075510;28;20867;-67
2023/06/01 08:00:40;;;;;;;9.80;3.70;;;14.80;99.90;;;;;;5074544;28;20401;-71
2023/06/01 08:03:06;;;;;;;7.87;4.60;;;14.70;99.90;;;;;;5075205;28;20770;-70
2023/06/01 08:05:34;;;;;;;15.17;4.83;;;14.70;99.90;;;;;;5074461;28;20316;-72
2023/06/01 08:08:00;;;;;;;6.97;3.43;;;14.70;99.90;;;;;;5073360;28;20174;-72
2023/06/01 08:10:26;;;;;;;10.70;3.37;;;14.70;99.90;;;;;;5074422;28;20401;-71
2023/06/01 08:12:55;;;;;;;9.73;4.03;;;14.80;99.90;;;;;;5074957;28;20424;-66
2023/06/01 08:15:23;;;;;;;6.97;3.90;;;14.70;99.90;;;;;;5071760;28;20614;-71
2023/06/01 08:17:50;;;;;;;11.80;4.10;;;14.80;99.90;;;;;;5074062;28;20974;-68
2023/06/01 08:20:22;;;;;;;11.57;3.60;;;14.60;99.90;;;;;;5072809;28;20428;-67
2023/06/01 08:22:50;;;;;;;9.80;2.93;;;14.50;99.90;;;;;;5072411;28;20510;-71
2023/06/01 08:25:16;;;;;;;11.33;3.80;;;14.50;99.90;;;;;;5072111;28;20438;-71
2023/06/01 08:27:43;;;;;;;12.20;3.43;;;14.60;99.90;;;;;;5071079;28;20411;-68
2023/06/01 08:30:09;;;;;;;8.20;3.23;;;14.70;99.90;;;;;;5072165;28;20421;-68
2023/06/01 08:32:35;;;;;;;11.87;4.00;;;14.80;99.90;;;;;;5073055;28;20544;-67
2023/06/01 08:35:01;;;;;;;12.33;3.57;;;14.80;99.90;;;;;;5064283;28;20509;-71
2023/06/01 08:37:26;;;;;;;9.30;3.77;;;14.80;99.90;;;;;;5073484;28;20178;-68
2023/06/01 08:39:52;;;;;;;9.03;3.57;;;15.00;99.90;;;;;;5074332;28;20178;-71
2023/06/01 08:42:26;;;;;;;7.73;2.73;;;15.10;99.90;;;;;;5071947;28;20182;-71
2023/06/01 08:44:55;;;;;;;5.67;3.10;;;15.10;99.90;;;;;;5074249;28;20190;-71
2023/06/01 08:47:23;;;;;;;5.80;3.40;;;15.20;99.90;;;;;;5072122;28;20519;-67
2023/06/01 08:49:50;;;;;;;5.47;2.93;;;15.10;99.90;;;;;;5074033;28;20371;-72
2023/06/01 08:52:22;;;;;;;12.47;2.90;;;15.20;99.90;;;;;;5073385;28;20452;-67
2023/06/01 08:54:48;;;;;;;8.53;2.40;;;15.50;99.90;;;;;;5072125;28;20440;-68
2023/06/01 08:57:16;;;;;;;11.20;3.30;;;15.50;99.90;;;;;;5074045;28;20397;-72
2023/06/01 08:59:42;;;;;;;8.13;2.80;;;15.60;99.90;;;;;;5073534;28;20454;-71
2023/06/01 09:02:08;;;;;;;3.33;2.40;;;15.70;99.90;;;;;;5073126;28;20796;-68
2023/06/01 09:04:37;;;;;;;12.53;3.40;;;15.70;99.90;;;;;;5073965;28;20635;-71
2023/06/01 09:07:03;;;;;;;8.33;3.43;;;15.80;99.90;;;;;;5073031;28;20460;-68
2023/06/01 09:09:28;;;;;;;6.40;3.10;;;15.80;99.90;;;;;;5073895;28;20401;-68
2023/06/01 09:12:29;;;;;;;5.40;2.60;;;15.90;99.90;;;;;;5072895;28;20479;-69
2023/06/01 09:15:17;;;;;;;6.83;2.90;;;16.10;99.90;;;;;;5073850;28;20562;-72
2023/06/01 09:17:47;;;;;;;2.50;2.30;;;16.50;99.90;;;;;;5073449;28;20897;-68
2023/06/01 09:20:14;;;;;;;11.37;3.13;;;16.70;99.90;;;;;;5072726;28;20432;-68
2023/06/01 09:22:45;;;;;;;7.73;3.50;;;16.80;99.90;;;;;;5072776;28;20940;-72
2023/06/01 09:25:13;;;;;;;7.27;3.07;;;17.00;99.90;;;;;;5072837;28;20509;-67
2023/06/01 09:27:44;;;;;;;7.67;3.33;;;17.10;99.90;;;;;;5073068;28;20436;-67
2023/06/01 09:30:10;;;;;;;7.70;2.83;;;17.00;99.90;;;;;;5072812;28;20404;-68
2023/06/01 09:32:35;;;;;;;9.37;2.80;;;17.20;99.90;;;;;;5072433;28;20482;-71
2023/06/01 09:35:01;;;;;;;9.07;3.00;;;17.60;99.90;;;;;;5072087;28;20754;-72
2023/06/01 09:37:27;;;;;;;6.83;3.00;;;17.60;99.90;;;;;;5071699;28;20185;-67
2023/06/01 09:39:53;;;;;;;9.40;4.13;;;17.70;99.90;;;;;;5065092;28;20175;-72
2023/06/01 09:42:34;;;;;;;8.63;2.60;;;17.70;99.90;;;;;;5052649;28;20409;-68
2023/06/01 09:45:18;;;;;;;7.73;3.20;;;18.00;99.90;;;;;;5064607;28;20269;-72
2023/06/01 09:47:45;;;;;;;7.00;2.40;;;17.70;99.90;;;;;;5072352;28;20428;-67
2023/06/01 09:50:11;;;;;;;8.30;2.50;;;17.80;99.90;;;;;;5072162;28;20757;-69
2023/06/01 09:52:37;;;;;;;9.30;2.97;;;17.80;99.90;;;;;;5071195;28;20244;-71
2023/06/01 09:55:08;;;;;;;9.50;3.17;;;18.10;99.90;;;;;;5073399;28;20232;-70
2023/06/01 09:57:36;;;;;;;6.40;2.33;;;18.60;99.90;;;;;;5073397;28;20162;-67
2023/06/01 10:00:06;;;;;;;10.60;2.33;;;19.10;99.90;;;;;;5073153;28;20400;-68
2023/06/01 10:02:33;;;;;;;7.40;2.30;;;19.50;99.90;;;;;;5073082;28;20425;-68
2023/06/01 10:04:59;;;;;;;5.87;1.83;;;20.00;99.90;;;;;;5073347;28;20458;-67
2023/06/01 10:07:31;;;;;;;6.90;2.47;;;20.20;99.90;;;;;;5071400;28;20432;-67
2023/06/01 10:09:59;;;;;;;6.43;2.20;;;20.40;99.90;;;;;;5072474;28;20397;-68
2023/06/01 10:12:25;;;;;;;11.97;1.90;;;20.50;99.90;;;;;;5072252;28;20753;-70
2023/06/01 10:14:52;;;;;;;5.10;1.80;;;20.40;99.90;;;;;;5073175;28;20392;-70
2023/06/01 10:17:19;;;;;;;2.70;1.70;;;20.70;99.90;;;;;;5073416;28;20750;-69
2023/06/01 10:19:45;;;;;;;3.57;1.83;;;21.10;99.90;;;;;;5072183;28;20942;-69
2023/06/01 10:22:12;;;;;;;7.60;1.97;;;21.40;99.90;;;;;;5072172;28;20393;-69
2023/06/01 10:24:40;;;;;;;4.20;2.10;;;21.30;99.90;;;;;;5072808;28;20510;-69
2023/06/01 10:27:35;;;;;;;4.40;2.50;;;21.10;99.90;;;;;;5072868;28;20456;-71
2023/06/01 10:30:01;;;;;;;8.47;2.40;;;21.40;99.90;;;;;;5072947;28;20396;-71
2023/06/01 10:32:44;;;;;;;9.33;2.30;;;21.50;99.90;;;;;;5072425;28;20467;-68
2023/06/01 10:35:30;;;;;;;9.73;2.77;;;21.40;99.90;;;;;;5071717;28;20429;-71
2023/06/01 10:38:19;;;;;;;8.87;1.90;;;20.60;99.90;;;;;;5072220;28;20514;-72
2023/06/01 10:40:46;;;;;;;3.93;2.03;;;20.50;99.90;;;;;;5069380;28;20416;-69
2023/06/01 10:43:39;;;;;;;3.90;2.40;;;20.90;99.90;;;;;;5075540;28;20427;-73
2023/06/01 10:46:30;;;;;;;9.00;2.60;;;21.50;99.90;;;;;;5076824;28;20915;-72
2023/06/01 10:48:59;;;;;;;16.20;2.63;;;21.80;99.90;;;;;;5075073;28;20424;-68
2023/06/01 10:51:25;;;;;;;8.97;2.20;;;21.90;99.90;;;;;;5074941;28;20431;-69
2023/06/01 10:53:54;;;;;;;7.80;2.30;;;21.90;99.90;;;;;;5076379;28;20446;-69
2023/06/01 10:56:27;;;;;;;5.73;2.90;;;22.10;99.90;;;;;;5076591;28;20792;-73
2023/06/01 10:59:13;;;;;;;11.03;2.57;;;22.30;99.90;;;;;;5076397;28;20912;-75
2023/06/01 11:01:44;;;;;;;9.37;1.87;;;22.90;99.90;;;;;;5074319;28;20825;-74
2023/06/01 11:04:10;;;;;;;4.70;2.00;;;22.90;99.90;;;;;;5073751;28;20542;-69
2023/06/01 11:06:40;;;;;;;5.47;2.00;;;22.60;99.90;;;;;;5075899;28;20478;-73
2023/06/01 11:09:10;;;;;;;3.67;2.07;;;22.70;99.90;;;;;;5076166;28;20397;-69
2023/06/01 11:11:48;;;;;;;9.63;2.57;;;23.20;99.90;;;;;;5074114;28;20412;-73
2023/06/01 11:14:16;;;;;;;3.37;2.40;;;23.70;99.90;;;;;;5076096;28;20435;-74
2023/06/01 11:16:42;;;;;;;4.97;2.37;;;24.00;99.90;;;;;;5075178;28;20920;-72
2023/06/01 11:19:09;;;;;;;4.90;2.50;;;24.10;99.90;;;;;;5075927;28;20404;-69
2023/06/01 11:21:42;;;;;;;9.17;2.60;;;23.70;99.90;;;;;;5075221;28;20491;-69
2023/06/01 11:24:14;;;;;;;8.93;2.93;;;23.60;99.90;;;;;;5075472;28;20452;-68
2023/06/01 11:26:41;;;;;;;6.77;1.90;;;23.60;99.90;;;;;;5076000;28;20534;-73
2023/06/01 11:29:15;;;;;;;5.37;2.50;;;23.90;99.90;;;;;;5074985;28;20937;-70
2023/06/01 11:31:45;;;;;;;12.20;2.60;;;24.20;99.90;;;;;;5075177;28;20404;-74
2023/06/01 11:34:12;;;;;;;7.50;2.00;;;24.40;99.90;;;;;;5075959;28;20416;-69
2023/06/01 11:36:41;;;;;;;7.07;2.60;;;24.70;99.90;;;;;;5076064;28;20429;-74
2023/06/01 11:39:17;;;;;;;12.57;1.83;;;24.70;99.90;;;;;;5074272;28;20847;-73
2023/06/01 11:41:44;;;;;;;12.77;2.57;;;24.50;99.90;;;;;;5074371;28;20404;-74
2023/06/01 11:44:09;;;;;;;9.07;2.20;;;24.90;99.90;;;;;;5075518;28;20456;-69
2023/06/01 11:46:36;;;;;;;4.77;2.17;;;24.70;99.90;;;;;;5075151;28;20452;-74
2023/06/01 11:49:06;;;;;;;4.30;2.17;;;24.80;99.90;;;;;;5054905;28;20257;-69
2023/06/01 11:51:39;;;;;;;5.57;2.70;;;24.60;99.90;;;;;;5053883;28;20790;-73
2023/06/01 11:54:05;;;;;;;5.27;2.50;;;24.70;99.90;;;;;;5070989;28;20936;-67
2023/06/01 11:56:36;;;;;;;4.10;2.57;;;24.40;99.90;;;;;;5075318;28;20754;-73
2023/06/01 11:59:11;;;;;;;8.30;1.87;;;24.70;99.90;;;;;;5073915;28;20408;-73
2023/06/01 12:01:45;;;;;;;10.53;3.10;;;25.20;99.90;;;;;;5074370;28;20881;-68
2023/06/01 12:04:15;;;;;;;10.80;2.70;;;25.40;99.90;;;;;;5075218;28;20432;-68
2023/06/01 12:06:41;;;;;;;13.43;2.43;;;25.70;99.90;;;;;;5074087;28;20456;-72
2023/06/01 12:09:08;;;;;;;10.73;2.70;;;25.50;99.90;;;;;;5073845;28;20415;-72
2023/06/01 12:11:34;;;;;;;15.87;2.63;;;25.40;99.90;;;;;;5073308;28;20451;-69
2023/06/01 12:14:01;;;;;;;6.97;3.33;;;25.60;99.90;;;;;;5074947;28;20420;-73
2023/06/01 12:16:52;;;;;;;6.13;2.87;;;25.70;99.90;;;;;;5074649;28;20407;-69
2023/06/01 12:19:18;;;;;;;13.77;2.80;;;26.30;99.90;;;;;;5073367;28;20412;-71
2023/06/01 12:21:51;;;;;;;9.17;3.10;;;26.80;99.90;;;;;;5057969;28;20982;-69
2023/06/01 12:24:32;;;;;;;16.40;2.80;;;27.10;99.90;;;;;;5057594;28;20198;-73
2023/06/01 12:26:59;;;;;;;10.20;3.30;;;27.20;99.90;;;;;;5053455;28;20825;-73
2023/06/01 12:29:36;;;;;;;12.10;2.77;;;27.30;99.90;;;;;;5054730;28;20401;-74
2023/06/01 12:32:05;;;;;;;11.10;2.77;;;27.20;99.90;;;;;;5053524;28;20408;-73
2023/06/01 12:34:31;;;;;;;8.90;2.50;;;26.90;99.90;;;;;;5054559;28;20512;-73
2023/06/01 12:36:57;;;;;;;9.20;2.70;;;26.50;99.90;;;;;;5069774;28;20539;-72
2023/06/01 12:39:36;;;;;;;7.77;2.50;;;26.20;99.90;;;;;;5057124;28;20888;-71
2023/06/01 12:42:04;;;;;;;5.80;2.70;;;24.90;99.90;;;;;;5053582;28;20178;-71
2023/06/01 12:44:32;;;;;;;11.90;2.80;;;24.40;99.90;;;;;;5054323;28;20452;-72
2023/06/01 12:46:58;;;;;;;12.03;3.07;;;24.20;99.90;;;;;;5054436;28;20456;-72
2023/06/01 12:49:24;;;;;;;8.43;3.10;;;24.10;99.90;;;;;;5056680;28;20524;-68
2023/06/01 12:51:50;;;;;;;14.60;3.60;;;24.20;99.90;;;;;;5068543;28;20499;-72